sensor_id;sensor_type;location;lat;lon;timestamp;P1;durP1;ratioP1;P2;durP2;ratioP2
51292;SDS011;37377;45.186;9.778;2023-05-14T10:11:44;6.50;;;3.78;;
51292;SDS011;37377;45.186;9.778;2023-05-14T10:17:12;4.40;;;4.00;;
51292;SDS011;37377;45.186;9.778;2023-05-14T10:19:55;4.10;;;3.70;;
51292;SDS011;37377;45.186;9.778;2023-05-14T10:22:23;4.28;;;3.67;;
51292;SDS011;37377;45.186;9.778;2023-05-14T10:24:52;4.32;;;3.92;;
51292;SDS011;37377;45.186;9.778;2023-05-14T10:27:19;4.40;;;3.22;;
51292;SDS011;37377;45.186;9.778;2023-05-14T10:29:50;6.00;;;4.22;;
51292;SDS011;37377;45.186;9.778;2023-05-14T10:32:20;8.48;;;7.70;;
51292;SDS011;37377;45.186;9.778;2023-05-14T10:34:47;4.90;;;3.25;;
51292;SDS011;37377;45.186;9.778;2023-05-14T10:37:16;2.88;;;2.60;;
51292;SDS011;37377;45.186;9.778;2023-05-14T10:42:11;5.63;;;3.85;;
51292;SDS011;37377;45.186;9.778;2023-05-14T10:44:40;5.32;;;2.95;;
51292;SDS011;37377;45.186;9.778;2023-05-14T10:47:08;3.25;;;2.83;;
51292;SDS011;37377;45.186;9.778;2023-05-14T10:49:35;3.25;;;2.88;;
51292;SDS011;37377;45.186;9.778;2023-05-14T10:52:09;2.83;;;2.28;;
51292;SDS011;37377;45.186;9.778;2023-05-14T10:54:37;4.07;;;2.38;;
51292;SDS011;37377;45.186;9.778;2023-05-14T10:57:08;2.83;;;2.00;;
51292;SDS011;37377;45.186;9.778;2023-05-14T10:59:39;2.00;;;1.80;;
51292;SDS011;37377;45.186;9.778;2023-05-14T11:02:16;7.95;;;2.53;;
51292;SDS011;37377;45.186;9.778;2023-05-14T11:04:50;11.38;;;2.15;;
51292;SDS011;37377;45.186;9.778;2023-05-14T11:07:19;4.20;;;1.80;;
51292;SDS011;37377;45.186;9.778;2023-05-14T11:09:49;6.35;;;2.20;;
51292;SDS011;37377;45.186;9.778;2023-05-14T11:12:16;2.67;;;2.05;;
51292;SDS011;37377;45.186;9.778;2023-05-14T11:14:45;4.97;;;1.75;;
51292;SDS011;37377;45.186;9.778;2023-05-14T11:17:14;2.17;;;1.60;;
51292;SDS011;37377;45.186;9.778;2023-05-14T11:19:56;4.65;;;1.77;;
51292;SDS011;37377;45.186;9.778;2023-05-14T11:22:23;2.22;;;1.75;;
51292;SDS011;37377;45.186;9.778;2023-05-14T11:25:02;1.85;;;1.75;;
51292;SDS011;37377;45.186;9.778;2023-05-14T11:27:32;2.65;;;1.92;;
51292;SDS011;37377;45.186;9.778;2023-05-14T11:29:59;3.75;;;2.28;;
51292;SDS011;37377;45.186;9.778;2023-05-14T11:35:00;5.57;;;2.38;;
51292;SDS011;37377;45.186;9.778;2023-05-14T11:37:30;4.22;;;1.60;;
51292;SDS011;37377;45.186;9.778;2023-05-14T11:40:57;2.28;;;1.50;;
51292;SDS011;37377;45.186;9.778;2023-05-14T11:44:14;2.80;;;1.30;;
51292;SDS011;37377;45.186;9.778;2023-05-14T11:47:17;3.17;;;1.52;;
51292;SDS011;37377;45.186;9.778;2023-05-14T11:50:05;2.40;;;1.30;;
51292;SDS011;37377;45.186;9.778;2023-05-14T11:52:39;1.80;;;1.40;;
51292;SDS011;37377;45.186;9.778;2023-05-14T11:55:13;1.88;;;1.73;;
51292;SDS011;37377;45.186;9.778;2023-05-14T11:57:49;7.75;;;1.30;;
51292;SDS011;37377;45.186;9.778;2023-05-14T12:00:17;4.65;;;1.80;;
51292;SDS011;37377;45.186;9.778;2023-05-14T12:02:47;1.35;;;1.13;;
51292;SDS011;37377;45.186;9.778;2023-05-14T12:05:15;1.40;;;0.98;;
51292;SDS011;37377;45.186;9.778;2023-05-14T12:07:48;2.97;;;1.00;;
51292;SDS011;37377;45.186;9.778;2023-05-14T12:10:15;3.72;;;1.00;;
51292;SDS011;37377;45.186;9.778;2023-05-14T12:12:44;2.78;;;0.88;;
51292;SDS011;37377;45.186;9.778;2023-05-14T12:15:11;2.05;;;0.77;;
51292;SDS011;37377;45.186;9.778;2023-05-14T12:17:39;1.40;;;0.80;;
51292;SDS011;37377;45.186;9.778;2023-05-14T12:20:55;2.38;;;1.10;;
51292;SDS011;37377;45.186;9.778;2023-05-14T12:23:30;5.88;;;0.85;;
51292;SDS011;37377;45.186;9.778;2023-05-14T12:26:04;3.15;;;0.80;;
51292;SDS011;37377;45.186;9.778;2023-05-14T12:28:34;1.33;;;0.73;;
51292;SDS011;37377;45.186;9.778;2023-05-14T12:31:14;2.28;;;1.00;;
51292;SDS011;37377;45.186;9.778;2023-05-14T12:33:41;3.42;;;1.00;;
51292;SDS011;37377;45.186;9.778;2023-05-14T12:36:08;7.18;;;0.80;;
51292;SDS011;37377;45.186;9.778;2023-05-14T12:38:48;1.00;;;0.90;;
51292;SDS011;37377;45.186;9.778;2023-05-14T12:41:22;1.63;;;0.90;;
51292;SDS011;37377;45.186;9.778;2023-05-14T12:44:20;2.75;;;1.02;;
51292;SDS011;37377;45.186;9.778;2023-05-14T12:46:51;1.95;;;1.00;;
51292;SDS011;37377;45.186;9.778;2023-05-14T12:49:21;1.90;;;0.88;;
51292;SDS011;37377;45.186;9.778;2023-05-14T12:51:52;3.33;;;0.98;;
51292;SDS011;37377;45.186;9.778;2023-05-14T12:54:59;1.40;;;1.00;;
51292;SDS011;37377;45.186;9.778;2023-05-14T12:57:37;1.10;;;0.90;;
51292;SDS011;37377;45.186;9.778;2023-05-14T13:00:18;2.85;;;0.90;;
51292;SDS011;37377;45.186;9.778;2023-05-14T13:02:50;1.60;;;0.90;;
51292;SDS011;37377;45.186;9.778;2023-05-14T13:05:17;2.95;;;0.80;;
51292;SDS011;37377;45.186;9.778;2023-05-14T13:07:47;3.10;;;0.85;;
51292;SDS011;37377;45.186;9.778;2023-05-14T13:10:15;3.72;;;0.98;;
51292;SDS011;37377;45.186;9.778;2023-05-14T13:12:44;3.67;;;0.75;;
51292;SDS011;37377;45.186;9.778;2023-05-14T13:15:11;2.65;;;0.90;;
51292;SDS011;37377;45.186;9.778;2023-05-14T13:17:41;1.95;;;0.85;;
51292;SDS011;37377;45.186;9.778;2023-05-14T13:20:12;1.20;;;0.63;;
51292;SDS011;37377;45.186;9.778;2023-05-14T13:22:40;2.55;;;1.20;;
51292;SDS011;37377;45.186;9.778;2023-05-14T13:25:07;1.13;;;0.85;;
51292;SDS011;37377;45.186;9.778;2023-05-14T13:27:37;1.17;;;0.88;;
51292;SDS011;37377;45.186;9.778;2023-05-14T13:30:04;4.78;;;1.20;;
51292;SDS011;37377;45.186;9.778;2023-05-14T13:32:35;3.75;;;0.93;;
51292;SDS011;37377;45.186;9.778;2023-05-14T13:35:03;5.50;;;0.82;;
51292;SDS011;37377;45.186;9.778;2023-05-14T13:37:34;2.85;;;0.70;;
51292;SDS011;37377;45.186;9.778;2023-05-14T13:40:07;1.55;;;0.85;;
51292;SDS011;37377;45.186;9.778;2023-05-14T13:42:35;1.67;;;0.80;;
51292;SDS011;37377;45.186;9.778;2023-05-14T13:45:06;0.85;;;0.70;;
51292;SDS011;37377;45.186;9.778;2023-05-14T13:48:27;3.65;;;1.00;;
51292;SDS011;37377;45.186;9.778;2023-05-14T13:50:55;5.07;;;1.15;;
51292;SDS011;37377;45.186;9.778;2023-05-14T13:53:27;2.80;;;1.20;;
51292;SDS011;37377;45.186;9.778;2023-05-14T13:56:01;1.73;;;0.80;;
51292;SDS011;37377;45.186;9.778;2023-05-14T13:58:28;3.33;;;0.75;;
51292;SDS011;37377;45.186;9.778;2023-05-14T14:01:05;2.45;;;1.00;;
51292;SDS011;37377;45.186;9.778;2023-05-14T14:04:03;2.95;;;1.00;;
51292;SDS011;37377;45.186;9.778;2023-05-14T14:06:41;5.10;;;0.95;;
51292;SDS011;37377;45.186;9.778;2023-05-14T14:09:14;11.80;;;1.50;;
51292;SDS011;37377;45.186;9.778;2023-05-14T14:11:56;5.90;;;2.03;;
51292;SDS011;37377;45.186;9.778;2023-05-14T14:14:26;2.40;;;1.08;;
51292;SDS011;37377;45.186;9.778;2023-05-14T14:16:57;5.47;;;1.10;;
51292;SDS011;37377;45.186;9.778;2023-05-14T14:19:57;3.97;;;1.00;;
51292;SDS011;37377;45.186;9.778;2023-05-14T14:23:14;4.22;;;1.00;;
51292;SDS011;37377;45.186;9.778;2023-05-14T14:25:42;19.05;;;6.88;;
51292;SDS011;37377;45.186;9.778;2023-05-14T14:28:10;2.58;;;1.23;;
51292;SDS011;37377;45.186;9.778;2023-05-14T14:30:37;2.03;;;0.80;;
51292;SDS011;37377;45.186;9.778;2023-05-14T14:33:04;3.13;;;1.05;;
51292;SDS011;37377;45.186;9.778;2023-05-14T14:35:35;2.05;;;1.40;;
51292;SDS011;37377;45.186;9.778;2023-05-14T14:38:03;1.90;;;0.90;;
51292;SDS011;37377;45.186;9.778;2023-05-14T14:40:38;1.37;;;0.90;;
51292;SDS011;37377;45.186;9.778;2023-05-14T14:43:05;2.03;;;1.05;;
51292;SDS011;37377;45.186;9.778;2023-05-14T14:45:39;2.67;;;1.35;;
51292;SDS011;37377;45.186;9.778;2023-05-14T14:48:26;1.05;;;0.82;;
51292;SDS011;37377;45.186;9.778;2023-05-14T14:50:54;3.17;;;0.90;;
51292;SDS011;37377;45.186;9.778;2023-05-14T14:53:23;4.63;;;0.98;;
51292;SDS011;37377;45.186;9.778;2023-05-14T14:55:55;3.50;;;0.95;;
51292;SDS011;37377;45.186;9.778;2023-05-14T14:58:29;4.03;;;1.00;;
51292;SDS011;37377;45.186;9.778;2023-05-14T15:00:57;1.13;;;0.80;;
51292;SDS011;37377;45.186;9.778;2023-05-14T15:03:25;4.30;;;1.00;;
51292;SDS011;37377;45.186;9.778;2023-05-14T15:06:02;3.15;;;1.10;;
51292;SDS011;37377;45.186;9.778;2023-05-14T15:08:31;3.83;;;1.13;;
51292;SDS011;37377;45.186;9.778;2023-05-14T15:11:01;3.60;;;1.25;;
51292;SDS011;37377;45.186;9.778;2023-05-14T15:13:30;2.22;;;1.02;;
51292;SDS011;37377;45.186;9.778;2023-05-14T15:16:00;2.05;;;0.90;;
51292;SDS011;37377;45.186;9.778;2023-05-14T15:18:28;2.88;;;1.00;;
51292;SDS011;37377;45.186;9.778;2023-05-14T15:20:55;1.30;;;0.80;;
51292;SDS011;37377;45.186;9.778;2023-05-14T15:23:22;2.13;;;0.90;;
51292;SDS011;37377;45.186;9.778;2023-05-14T15:25:56;1.33;;;0.90;;
51292;SDS011;37377;45.186;9.778;2023-05-14T15:28:23;1.20;;;0.82;;
51292;SDS011;37377;45.186;9.778;2023-05-14T15:30:50;3.22;;;0.90;;
51292;SDS011;37377;45.186;9.778;2023-05-14T15:33:17;3.70;;;0.90;;
51292;SDS011;37377;45.186;9.778;2023-05-14T15:35:45;2.47;;;0.80;;
51292;SDS011;37377;45.186;9.778;2023-05-14T15:38:12;1.95;;;0.80;;
51292;SDS011;37377;45.186;9.778;2023-05-14T15:40:40;1.20;;;0.80;;
51292;SDS011;37377;45.186;9.778;2023-05-14T15:43:07;2.00;;;0.90;;
51292;SDS011;37377;45.186;9.778;2023-05-14T15:45:34;3.15;;;1.00;;
51292;SDS011;37377;45.186;9.778;2023-05-14T15:48:01;2.10;;;1.10;;
51292;SDS011;37377;45.186;9.778;2023-05-14T15:50:28;2.35;;;1.17;;
51292;SDS011;37377;45.186;9.778;2023-05-14T15:52:55;3.85;;;1.10;;
51292;SDS011;37377;45.186;9.778;2023-05-14T15:55:23;4.05;;;1.33;;
51292;SDS011;37377;45.186;9.778;2023-05-14T15:57:51;2.20;;;1.20;;
51292;SDS011;37377;45.186;9.778;2023-05-14T16:00:18;3.40;;;1.10;;
51292;SDS011;37377;45.186;9.778;2023-05-14T16:02:46;2.65;;;1.30;;
51292;SDS011;37377;45.186;9.778;2023-05-14T16:05:13;2.70;;;1.45;;
51292;SDS011;37377;45.186;9.778;2023-05-14T16:07:41;3.20;;;1.20;;
51292;SDS011;37377;45.186;9.778;2023-05-14T16:10:08;1.92;;;1.38;;
51292;SDS011;37377;45.186;9.778;2023-05-14T16:12:35;2.10;;;1.50;;
51292;SDS011;37377;45.186;9.778;2023-05-14T16:15:03;4.00;;;1.58;;
51292;SDS011;37377;45.186;9.778;2023-05-14T16:17:31;1.98;;;1.40;;
51292;SDS011;37377;45.186;9.778;2023-05-14T16:19:58;2.75;;;1.60;;
51292;SDS011;37377;45.186;9.778;2023-05-14T16:22:27;3.38;;;1.50;;
51292;SDS011;37377;45.186;9.778;2023-05-14T16:24:55;3.38;;;1.48;;
51292;SDS011;37377;45.186;9.778;2023-05-14T16:27:22;5.63;;;1.40;;
51292;SDS011;37377;45.186;9.778;2023-05-14T16:29:49;4.45;;;1.40;;
51292;SDS011;37377;45.186;9.778;2023-05-14T16:32:17;6.60;;;1.38;;
51292;SDS011;37377;45.186;9.778;2023-05-14T16:34:44;3.97;;;1.30;;
51292;SDS011;37377;45.186;9.778;2023-05-14T16:37:16;2.67;;;1.40;;
51292;SDS011;37377;45.186;9.778;2023-05-14T16:39:44;5.18;;;1.30;;
51292;SDS011;37377;45.186;9.778;2023-05-14T16:42:12;2.58;;;1.23;;
51292;SDS011;37377;45.186;9.778;2023-05-14T16:44:39;4.82;;;1.40;;
51292;SDS011;37377;45.186;9.778;2023-05-14T16:47:06;5.28;;;1.90;;
51292;SDS011;37377;45.186;9.778;2023-05-14T16:49:33;4.18;;;1.70;;
51292;SDS011;37377;45.186;9.778;2023-05-14T16:52:00;4.90;;;1.77;;
51292;SDS011;37377;45.186;9.778;2023-05-14T16:54:28;4.32;;;1.80;;
51292;SDS011;37377;45.186;9.778;2023-05-14T16:56:56;2.03;;;1.50;;
51292;SDS011;37377;45.186;9.778;2023-05-14T16:59:23;7.70;;;1.70;;
51292;SDS011;37377;45.186;9.778;2023-05-14T17:01:50;5.80;;;1.88;;
51292;SDS011;37377;45.186;9.778;2023-05-14T17:04:20;7.22;;;2.20;;
51292;SDS011;37377;45.186;9.778;2023-05-14T17:06:47;9.55;;;2.92;;
51292;SDS011;37377;45.186;9.778;2023-05-14T17:09:15;7.25;;;2.30;;
51292;SDS011;37377;45.186;9.778;2023-05-14T17:11:42;8.10;;;2.30;;
51292;SDS011;37377;45.186;9.778;2023-05-14T17:14:09;4.70;;;1.83;;
51292;SDS011;37377;45.186;9.778;2023-05-14T17:16:36;11.10;;;2.33;;
51292;SDS011;37377;45.186;9.778;2023-05-14T17:19:06;5.97;;;2.00;;
51292;SDS011;37377;45.186;9.778;2023-05-14T17:21:33;4.88;;;2.38;;
51292;SDS011;37377;45.186;9.778;2023-05-14T17:24:00;4.53;;;2.10;;
51292;SDS011;37377;45.186;9.778;2023-05-14T17:26:27;7.57;;;1.77;;
51292;SDS011;37377;45.186;9.778;2023-05-14T17:28:55;4.13;;;2.40;;
51292;SDS011;37377;45.186;9.778;2023-05-14T17:31:22;6.30;;;5.10;;
51292;SDS011;37377;45.186;9.778;2023-05-14T17:33:49;9.43;;;7.00;;
51292;SDS011;37377;45.186;9.778;2023-05-14T17:36:17;8.68;;;5.97;;
51292;SDS011;37377;45.186;9.778;2023-05-14T17:38:44;6.65;;;3.63;;
51292;SDS011;37377;45.186;9.778;2023-05-14T17:41:11;8.90;;;2.88;;
51292;SDS011;37377;45.186;9.778;2023-05-14T17:43:38;8.13;;;3.00;;
51292;SDS011;37377;45.186;9.778;2023-05-14T17:46:05;7.22;;;2.63;;
51292;SDS011;37377;45.186;9.778;2023-05-14T17:48:32;6.25;;;2.60;;
51292;SDS011;37377;45.186;9.778;2023-05-14T17:50:59;8.63;;;3.60;;
51292;SDS011;37377;45.186;9.778;2023-05-14T17:53:26;4.10;;;3.17;;
51292;SDS011;37377;45.186;9.778;2023-05-14T17:55:53;8.20;;;3.40;;
51292;SDS011;37377;45.186;9.778;2023-05-14T17:58:20;5.07;;;3.30;;
51292;SDS011;37377;45.186;9.778;2023-05-14T18:00:47;8.70;;;4.25;;
51292;SDS011;37377;45.186;9.778;2023-05-14T18:03:15;5.20;;;3.70;;
51292;SDS011;37377;45.186;9.778;2023-05-14T18:05:43;6.15;;;3.47;;
51292;SDS011;37377;45.186;9.778;2023-05-14T18:08:11;6.97;;;3.08;;
51292;SDS011;37377;45.186;9.778;2023-05-14T18:10:38;6.28;;;3.65;;
51292;SDS011;37377;45.186;9.778;2023-05-14T18:13:06;8.63;;;3.00;;
51292;SDS011;37377;45.186;9.778;2023-05-14T18:15:34;3.90;;;3.50;;
51292;SDS011;37377;45.186;9.778;2023-05-14T18:18:01;6.03;;;3.50;;
51292;SDS011;37377;45.186;9.778;2023-05-14T18:20:28;7.38;;;4.05;;
51292;SDS011;37377;45.186;9.778;2023-05-14T18:22:58;7.80;;;4.10;;
51292;SDS011;37377;45.186;9.778;2023-05-14T18:25:25;5.43;;;3.80;;
51292;SDS011;37377;45.186;9.778;2023-05-14T18:27:52;6.38;;;4.90;;
51292;SDS011;37377;45.186;9.778;2023-05-14T18:30:19;5.93;;;4.28;;
51292;SDS011;37377;45.186;9.778;2023-05-14T18:32:46;7.60;;;4.20;;
51292;SDS011;37377;45.186;9.778;2023-05-14T18:35:13;8.05;;;4.28;;
51292;SDS011;37377;45.186;9.778;2023-05-14T18:37:41;5.47;;;4.97;;
51292;SDS011;37377;45.186;9.778;2023-05-14T18:40:08;5.97;;;4.65;;
51292;SDS011;37377;45.186;9.778;2023-05-14T18:42:38;12.45;;;4.10;;
51292;SDS011;37377;45.186;9.778;2023-05-14T18:45:05;10.68;;;4.80;;
51292;SDS011;37377;45.186;9.778;2023-05-14T18:47:33;13.38;;;4.85;;
51292;SDS011;37377;45.186;9.778;2023-05-14T18:50:00;6.10;;;5.60;;
51292;SDS011;37377;45.186;9.778;2023-05-14T18:52:28;8.50;;;5.93;;
51292;SDS011;37377;45.186;9.778;2023-05-14T18:54:55;8.70;;;5.45;;
51292;SDS011;37377;45.186;9.778;2023-05-14T18:57:22;7.88;;;5.53;;
51292;SDS011;37377;45.186;9.778;2023-05-14T18:59:49;8.00;;;5.28;;
51292;SDS011;37377;45.186;9.778;2023-05-14T19:02:16;8.43;;;5.57;;
51292;SDS011;37377;45.186;9.778;2023-05-14T19:04:43;8.57;;;5.80;;
51292;SDS011;37377;45.186;9.778;2023-05-14T19:07:19;6.00;;;5.50;;
51292;SDS011;37377;45.186;9.778;2023-05-14T19:09:52;7.10;;;5.15;;
51292;SDS011;37377;45.186;9.778;2023-05-14T19:12:20;11.10;;;6.13;;
51292;SDS011;37377;45.186;9.778;2023-05-14T19:14:47;6.82;;;6.18;;
51292;SDS011;37377;45.186;9.778;2023-05-14T19:17:14;8.48;;;6.15;;
51292;SDS011;37377;45.186;9.778;2023-05-14T19:19:44;6.70;;;6.10;;
51292;SDS011;37377;45.186;9.778;2023-05-14T19:22:11;12.55;;;6.82;;
51292;SDS011;37377;45.186;9.778;2023-05-14T19:24:38;7.35;;;6.65;;
51292;SDS011;37377;45.186;9.778;2023-05-14T19:27:05;8.20;;;6.25;;
51292;SDS011;37377;45.186;9.778;2023-05-14T19:29:34;8.70;;;5.88;;
51292;SDS011;37377;45.186;9.778;2023-05-14T19:32:03;9.20;;;6.35;;
51292;SDS011;37377;45.186;9.778;2023-05-14T19:34:30;9.05;;;6.45;;
51292;SDS011;37377;45.186;9.778;2023-05-14T19:36:57;7.13;;;6.40;;
51292;SDS011;37377;45.186;9.778;2023-05-14T19:39:24;8.27;;;7.47;;
51292;SDS011;37377;45.186;9.778;2023-05-14T19:41:52;9.85;;;7.40;;
51292;SDS011;37377;45.186;9.778;2023-05-14T19:44:19;12.07;;;7.80;;
51292;SDS011;37377;45.186;9.778;2023-05-14T19:46:46;8.93;;;6.22;;
51292;SDS011;37377;45.186;9.778;2023-05-14T19:49:13;8.23;;;7.40;;
51292;SDS011;37377;45.186;9.778;2023-05-14T19:51:40;10.85;;;6.80;;
51292;SDS011;37377;45.186;9.778;2023-05-14T19:54:07;11.02;;;7.22;;
51292;SDS011;37377;45.186;9.778;2023-05-14T19:56:37;10.13;;;8.27;;
51292;SDS011;37377;45.186;9.778;2023-05-14T19:59:05;7.85;;;7.15;;
51292;SDS011;37377;45.186;9.778;2023-05-14T20:01:32;12.63;;;8.25;;
51292;SDS011;37377;45.186;9.778;2023-05-14T20:04:00;14.25;;;9.07;;
51292;SDS011;37377;45.186;9.778;2023-05-14T20:06:27;15.63;;;9.70;;
51292;SDS011;37377;45.186;9.778;2023-05-14T20:08:54;11.52;;;9.93;;
51292;SDS011;37377;45.186;9.778;2023-05-14T20:11:22;10.40;;;7.40;;
51292;SDS011;37377;45.186;9.778;2023-05-14T20:13:49;11.57;;;8.20;;
51292;SDS011;37377;45.186;9.778;2023-05-14T20:16:16;9.35;;;6.82;;
51292;SDS011;37377;45.186;9.778;2023-05-14T20:18:44;11.82;;;8.50;;
51292;SDS011;37377;45.186;9.778;2023-05-14T20:21:11;12.52;;;9.15;;
51292;SDS011;37377;45.186;9.778;2023-05-14T20:23:38;12.02;;;9.70;;
51292;SDS011;37377;45.186;9.778;2023-05-14T20:26:05;11.35;;;10.23;;
51292;SDS011;37377;45.186;9.778;2023-05-14T20:28:32;11.18;;;10.05;;
51292;SDS011;37377;45.186;9.778;2023-05-14T20:30:59;10.52;;;8.85;;
51292;SDS011;37377;45.186;9.778;2023-05-14T20:33:29;12.25;;;7.25;;
51292;SDS011;37377;45.186;9.778;2023-05-14T20:35:56;12.48;;;8.48;;
51292;SDS011;37377;45.186;9.778;2023-05-14T20:38:23;12.13;;;7.57;;
51292;SDS011;37377;45.186;9.778;2023-05-14T20:40:51;10.25;;;7.65;;
51292;SDS011;37377;45.186;9.778;2023-05-14T20:43:18;7.32;;;6.00;;
51292;SDS011;37377;45.186;9.778;2023-05-14T20:45:45;12.73;;;11.50;;
51292;SDS011;37377;45.186;9.778;2023-05-14T20:48:12;10.80;;;9.80;;
51292;SDS011;37377;45.186;9.778;2023-05-14T20:50:42;8.32;;;7.53;;
51292;SDS011;37377;45.186;9.778;2023-05-14T20:53:10;13.18;;;10.75;;
51292;SDS011;37377;45.186;9.778;2023-05-14T20:55:37;8.80;;;5.28;;
51292;SDS011;37377;45.186;9.778;2023-05-14T20:58:05;8.20;;;4.30;;
51292;SDS011;37377;45.186;9.778;2023-05-14T21:00:32;6.22;;;4.80;;
51292;SDS011;37377;45.186;9.778;2023-05-14T21:02:59;5.75;;;4.85;;
51292;SDS011;37377;45.186;9.778;2023-05-14T21:05:26;6.95;;;4.70;;
51292;SDS011;37377;45.186;9.778;2023-05-14T21:07:54;11.82;;;5.20;;
51292;SDS011;37377;45.186;9.778;2023-05-14T21:10:21;7.15;;;4.60;;
51292;SDS011;37377;45.186;9.778;2023-05-14T21:12:49;5.78;;;4.60;;
51292;SDS011;37377;45.186;9.778;2023-05-14T21:15:17;8.95;;;4.30;;
51292;SDS011;37377;45.186;9.778;2023-05-14T21:17:44;6.20;;;4.50;;
51292;SDS011;37377;45.186;9.778;2023-05-14T21:20:11;6.82;;;4.47;;
51292;SDS011;37377;45.186;9.778;2023-05-14T21:22:41;6.05;;;4.30;;
51292;SDS011;37377;45.186;9.778;2023-05-14T21:25:08;5.38;;;3.45;;
51292;SDS011;37377;45.186;9.778;2023-05-14T21:27:35;4.55;;;2.72;;
51292;SDS011;37377;45.186;9.778;2023-05-14T21:30:02;4.50;;;2.90;;
51292;SDS011;37377;45.186;9.778;2023-05-14T21:32:30;2.58;;;1.80;;
51292;SDS011;37377;45.186;9.778;2023-05-14T21:34:58;3.20;;;1.83;;
51292;SDS011;37377;45.186;9.778;2023-05-14T21:37:25;4.65;;;3.40;;
51292;SDS011;37377;45.186;9.778;2023-05-14T21:39:52;8.30;;;6.82;;
51292;SDS011;37377;45.186;9.778;2023-05-14T21:42:19;3.97;;;2.25;;
51292;SDS011;37377;45.186;9.778;2023-05-14T21:44:47;4.22;;;1.80;;
51292;SDS011;37377;45.186;9.778;2023-05-14T21:47:14;4.40;;;1.70;;
51292;SDS011;37377;45.186;9.778;2023-05-14T21:49:41;3.50;;;1.38;;
51292;SDS011;37377;45.186;9.778;2023-05-14T21:52:11;6.25;;;2.13;;
51292;SDS011;37377;45.186;9.778;2023-05-14T21:54:39;2.33;;;1.50;;
51292;SDS011;37377;45.186;9.778;2023-05-14T21:57:06;2.03;;;1.35;;
51292;SDS011;37377;45.186;9.778;2023-05-14T21:59:33;1.63;;;1.42;;
51292;SDS011;37377;45.186;9.778;2023-05-14T22:02:00;1.80;;;1.30;;
51292;SDS011;37377;45.186;9.778;2023-05-14T22:04:33;4.75;;;1.50;;
51292;SDS011;37377;45.186;9.778;2023-05-14T22:07:01;4.32;;;1.27;;
51292;SDS011;37377;45.186;9.778;2023-05-14T22:09:29;2.20;;;1.52;;
51292;SDS011;37377;45.186;9.778;2023-05-14T22:11:56;2.75;;;1.30;;
51292;SDS011;37377;45.186;9.778;2023-05-14T22:14:24;3.72;;;1.20;;
51292;SDS011;37377;45.186;9.778;2023-05-14T22:16:53;3.85;;;1.20;;
51292;SDS011;37377;45.186;9.778;2023-05-14T22:19:20;5.55;;;1.20;;
51292;SDS011;37377;45.186;9.778;2023-05-14T22:21:48;6.38;;;1.10;;
51292;SDS011;37377;45.186;9.778;2023-05-14T22:24:15;4.72;;;1.10;;
51292;SDS011;37377;45.186;9.778;2023-05-14T22:26:42;1.70;;;1.10;;
51292;SDS011;37377;45.186;9.778;2023-05-14T22:29:09;2.28;;;1.25;;
51292;SDS011;37377;45.186;9.778;2023-05-14T22:31:36;2.05;;;1.40;;
51292;SDS011;37377;45.186;9.778;2023-05-14T22:34:07;4.68;;;1.50;;
51292;SDS011;37377;45.186;9.778;2023-05-14T22:36:34;3.28;;;1.58;;
51292;SDS011;37377;45.186;9.778;2023-05-14T22:39:01;6.22;;;1.50;;
51292;SDS011;37377;45.186;9.778;2023-05-14T22:41:28;2.50;;;1.63;;
51292;SDS011;37377;45.186;9.778;2023-05-14T22:43:56;5.28;;;1.80;;
51292;SDS011;37377;45.186;9.778;2023-05-14T22:46:23;2.05;;;1.50;;
51292;SDS011;37377;45.186;9.778;2023-05-14T22:48:50;2.50;;;1.63;;
51292;SDS011;37377;45.186;9.778;2023-05-14T22:51:17;2.97;;;1.60;;
51292;SDS011;37377;45.186;9.778;2023-05-14T22:53:45;4.13;;;2.40;;
51292;SDS011;37377;45.186;9.778;2023-05-14T22:56:13;5.45;;;2.20;;
51292;SDS011;37377;45.186;9.778;2023-05-14T22:58:40;3.97;;;2.13;;
51292;SDS011;37377;45.186;9.778;2023-05-14T23:01:08;4.72;;;2.10;;
51292;SDS011;37377;45.186;9.778;2023-05-14T23:03:36;3.33;;;2.38;;
51292;SDS011;37377;45.186;9.778;2023-05-14T23:06:03;6.15;;;2.20;;
51292;SDS011;37377;45.186;9.778;2023-05-14T23:08:31;3.47;;;2.00;;
51292;SDS011;37377;45.186;9.778;2023-05-14T23:10:58;1.80;;;1.70;;
51292;SDS011;37377;45.186;9.778;2023-05-14T23:13:25;5.65;;;1.92;;
51292;SDS011;37377;45.186;9.778;2023-05-14T23:15:52;4.80;;;1.80;;
51292;SDS011;37377;45.186;9.778;2023-05-14T23:18:19;4.35;;;1.92;;
51292;SDS011;37377;45.186;9.778;2023-05-14T23:20:47;3.58;;;2.03;;
51292;SDS011;37377;45.186;9.778;2023-05-14T23:23:14;3.58;;;2.15;;
51292;SDS011;37377;45.186;9.778;2023-05-14T23:25:41;5.43;;;2.25;;
51292;SDS011;37377;45.186;9.778;2023-05-14T23:28:08;3.47;;;2.10;;
51292;SDS011;37377;45.186;9.778;2023-05-14T23:30:36;4.82;;;2.40;;
51292;SDS011;37377;45.186;9.778;2023-05-14T23:33:03;4.70;;;1.80;;
51292;SDS011;37377;45.186;9.778;2023-05-14T23:35:31;2.80;;;2.10;;
51292;SDS011;37377;45.186;9.778;2023-05-14T23:37:58;2.85;;;2.33;;
51292;SDS011;37377;45.186;9.778;2023-05-14T23:40:25;2.70;;;2.33;;
51292;SDS011;37377;45.186;9.778;2023-05-14T23:42:52;2.38;;;2.00;;
51292;SDS011;37377;45.186;9.778;2023-05-14T23:45:20;2.63;;;2.10;;
51292;SDS011;37377;45.186;9.778;2023-05-14T23:47:47;3.00;;;2.28;;
51292;SDS011;37377;45.186;9.778;2023-05-14T23:50:14;4.28;;;1.80;;
51292;SDS011;37377;45.186;9.778;2023-05-14T23:52:41;2.97;;;2.13;;
51292;SDS011;37377;45.186;9.778;2023-05-14T23:55:09;2.15;;;1.80;;
51292;SDS011;37377;45.186;9.778;2023-05-14T23:57:36;5.70;;;1.67;;
